createdAt,value
2023-05-24T00:00:19.273Z,14.80
2023-05-24T00:05:41.738Z,14.70
2023-05-24T00:10:44.522Z,14.50
2023-05-24T00:15:47.323Z,14.30
2023-05-24T00:20:51.887Z,14.30
2023-05-24T00:25:54.488Z,14.30
2023-05-24T00:31:00.448Z,14.20
2023-05-24T00:36:03.013Z,14.10
2023-05-24T00:41:05.847Z,14.00
2023-05-24T00:46:19.266Z,13.80
2023-05-24T00:51:22.763Z,13.70
2023-05-24T00:56:26.789Z,13.50
2023-05-24T01:01:31.154Z,13.30
2023-05-24T01:06:45.068Z,12.90
2023-05-24T01:11:58.451Z,12.70
2023-05-24T01:17:15.779Z,12.50
2023-05-24T01:22:36.370Z,12.40
2023-05-24T01:27:39.752Z,12.40
2023-05-24T01:32:42.820Z,12.50
2023-05-24T01:37:45.383Z,12.50
2023-05-24T01:43:15.498Z,12.40
2023-05-24T01:48:51.731Z,12.40
2023-05-24T01:53:57.787Z,12.20
2023-05-24T01:59:02.697Z,12.00
2023-05-24T02:04:05.586Z,11.90
2023-05-24T02:09:08.149Z,11.90
2023-05-24T02:14:11.301Z,11.90
2023-05-24T02:19:14.674Z,11.70
2023-05-24T02:24:18.711Z,11.60
2023-05-24T02:29:22.528Z,11.30
2023-05-24T02:34:25.600Z,11.10
2023-05-24T02:39:28.544Z,11.10
2023-05-24T02:44:31.284Z,10.90
2023-05-24T02:49:33.809Z,10.80
2023-05-24T02:54:39.600Z,10.70
2023-05-24T02:59:43.000Z,11.00
2023-05-24T03:04:46.057Z,11.10
2023-05-24T03:09:48.790Z,11.20
2023-05-24T03:14:54.222Z,11.50
2023-05-24T03:19:56.862Z,11.90
2023-05-24T03:24:59.469Z,12.40
2023-05-24T03:30:02.403Z,13.60
2023-05-24T03:35:12.147Z,14.60
2023-05-24T03:40:14.803Z,15.60
2023-05-24T03:45:40.409Z,16.70
2023-05-24T03:50:43.467Z,16.70
2023-05-24T03:55:47.174Z,16.90
2023-05-24T04:00:49.977Z,17.50
2023-05-24T04:05:53.263Z,17.40
2023-05-24T04:10:56.377Z,17.00
2023-05-24T04:15:58.949Z,17.20
2023-05-24T04:21:01.587Z,17.60
2023-05-24T04:26:05.130Z,18.60
2023-05-24T04:31:09.509Z,19.80
2023-05-24T04:36:13.432Z,20.30
2023-05-24T04:41:16.156Z,20.60
2023-05-24T04:46:18.812Z,20.40
2023-05-24T04:51:23.247Z,19.80
2023-05-24T04:56:25.947Z,19.50
2023-05-24T05:01:28.716Z,19.60
2023-05-24T05:06:31.891Z,19.80
2023-05-24T05:11:34.497Z,19.80
2023-05-24T05:16:37.464Z,18.90
2023-05-24T05:21:40.346Z,18.00
2023-05-24T05:26:43.050Z,17.60
2023-05-24T05:31:46.954Z,17.50
2023-05-24T05:36:49.591Z,17.40
2023-05-24T05:41:52.223Z,17.40
2023-05-24T05:46:54.929Z,17.60
2023-05-24T05:51:57.485Z,17.40
2023-05-24T05:57:01.621Z,17.40
2023-05-24T06:02:05.866Z,17.50
2023-05-24T06:07:08.470Z,17.70
2023-05-24T06:12:11.036Z,17.70
2023-05-24T06:17:13.868Z,17.70
2023-05-24T06:22:16.669Z,17.00
2023-05-24T06:27:19.442Z,17.00
2023-05-24T06:32:21.961Z,17.30
2023-05-24T06:37:25.621Z,17.60
2023-05-24T06:42:28.453Z,18.00
2023-05-24T06:47:31.238Z,18.00
2023-05-24T06:52:33.841Z,17.90
2023-05-24T06:57:36.522Z,18.00
2023-05-24T07:02:39.944Z,17.90
2023-05-24T07:07:43.402Z,18.00
2023-05-24T07:12:46.188Z,17.90
2023-05-24T07:17:48.874Z,17.70
2023-05-24T07:22:52.176Z,17.40
2023-05-24T07:27:55.064Z,17.50
2023-05-24T07:32:57.809Z,17.80
2023-05-24T07:38:00.414Z,18.20
2023-05-24T07:43:04.255Z,18.50
2023-05-24T07:48:07.237Z,18.20
2023-05-24T07:53:10.073Z,18.20
2023-05-24T07:58:13.246Z,19.20
2023-05-24T08:03:17.476Z,19.40
2023-05-24T08:08:20.532Z,19.10
2023-05-24T08:13:23.537Z,19.10
2023-05-24T08:18:26.236Z,19.00
2023-05-24T08:23:30.115Z,19.50
2023-05-24T08:28:32.899Z,20.20
2023-05-24T08:33:35.818Z,20.40
2023-05-24T08:38:38.448Z,19.90
2023-05-24T08:43:42.646Z,20.10
2023-05-24T08:48:47.328Z,20.00
2023-05-24T08:53:51.953Z,19.70
2023-05-24T08:58:55.213Z,19.60
2023-05-24T09:04:01.046Z,18.80
2023-05-24T09:09:04.836Z,18.90
2023-05-24T09:14:08.031Z,19.50
2023-05-24T09:19:10.899Z,19.20
2023-05-24T09:24:13.961Z,18.60
2023-05-24T09:29:16.467Z,18.50
2023-05-24T09:34:19.237Z,18.60
2023-05-24T09:39:22.724Z,15.10
2023-05-24T09:44:28.226Z,18.70
2023-05-24T09:49:31.690Z,18.70
2023-05-24T09:54:34.477Z,18.70
2023-05-24T09:59:40.329Z,18.80
2023-05-24T10:04:43.194Z,19.00
2023-05-24T10:09:46.778Z,18.50
2023-05-24T10:14:50.075Z,18.90
2023-05-24T10:19:52.881Z,19.60
2023-05-24T10:25:00.162Z,20.00
2023-05-24T10:30:12.123Z,20.00
2023-05-24T10:35:18.356Z,20.00
2023-05-24T10:40:22.895Z,20.50
2023-05-24T10:45:25.579Z,19.40
2023-05-24T10:50:29.523Z,19.80
2023-05-24T10:55:34.714Z,19.70
2023-05-24T11:00:44.613Z,19.60
2023-05-24T11:05:47.992Z,20.00
2023-05-24T11:10:51.456Z,19.90
2023-05-24T11:15:54.317Z,20.30
2023-05-24T11:20:59.366Z,19.50
2023-05-24T11:26:03.693Z,19.30
2023-05-24T11:31:09.946Z,19.70
2023-05-24T11:36:12.842Z,19.00
2023-05-24T11:41:15.694Z,18.20
2023-05-24T11:46:20.473Z,17.60
2023-05-24T11:51:31.027Z,18.00
2023-05-24T11:56:34.236Z,18.10
2023-05-24T12:01:38.369Z,18.50
2023-05-24T12:06:43.599Z,18.80
2023-05-24T12:11:50.654Z,18.90
2023-05-24T12:16:58.275Z,18.70
2023-05-24T12:22:09.175Z,18.10
2023-05-24T12:27:11.875Z,17.60
2023-05-24T12:32:15.708Z,17.70
2023-05-24T12:37:19.423Z,17.70
2023-05-24T12:42:24.025Z,17.80
2023-05-24T12:47:27.324Z,17.60
2023-05-24T12:52:29.905Z,17.80
2023-05-24T12:57:32.811Z,18.10
2023-05-24T13:02:38.060Z,18.70
2023-05-24T13:07:45.895Z,18.70
2023-05-24T13:12:48.888Z,18.40
2023-05-24T13:17:51.577Z,18.60
2023-05-24T13:22:54.268Z,18.50
2023-05-24T13:27:57.558Z,17.90
2023-05-24T13:33:00.564Z,18.20
2023-05-24T13:38:04.116Z,18.60
2023-05-24T13:43:06.959Z,19.10
2023-05-24T13:48:09.812Z,18.60
2023-05-24T13:53:12.685Z,18.30
2023-05-24T13:58:15.758Z,18.30
2023-05-24T14:03:18.336Z,18.30
2023-05-24T14:08:21.122Z,18.20
2023-05-24T14:18:36.056Z,18.60
2023-05-24T14:23:39.359Z,18.40
2023-05-24T14:28:42.154Z,18.50
2023-05-24T14:33:44.776Z,18.60
2023-05-24T14:38:47.486Z,18.20
2023-05-24T14:43:50.159Z,17.90
2023-05-24T14:48:52.827Z,17.80
2023-05-24T14:53:55.498Z,17.70
2023-05-24T14:58:58.669Z,18.00
2023-05-24T15:04:01.896Z,17.50
2023-05-24T15:09:06.936Z,17.50
2023-05-24T15:14:09.562Z,17.50
2023-05-24T15:19:13.364Z,17.70
2023-05-24T15:24:16.356Z,17.70
2023-05-24T15:29:19.443Z,17.20
2023-05-24T15:34:23.701Z,17.00
2023-05-24T15:39:27.024Z,13.60
2023-05-24T15:44:29.768Z,16.60
2023-05-24T15:49:32.553Z,16.60
2023-05-24T15:54:36.149Z,16.60
2023-05-24T15:59:39.666Z,16.90
2023-05-24T16:04:42.258Z,16.80
2023-05-24T16:09:46.968Z,16.70
2023-05-24T16:14:49.794Z,16.60
2023-05-24T16:19:52.344Z,16.40
2023-05-24T16:24:56.240Z,16.20
2023-05-24T16:29:59.008Z,16.20
2023-05-24T16:35:01.811Z,16.20
2023-05-24T16:40:05.260Z,16.10
2023-05-24T16:45:08.376Z,16.00
2023-05-24T16:50:15.058Z,15.80
2023-05-24T16:55:18.093Z,15.60
2023-05-24T17:00:22.597Z,15.40
2023-05-24T17:05:25.626Z,15.40
2023-05-24T17:10:28.558Z,15.30
2023-05-24T17:15:31.559Z,15.30
2023-05-24T17:20:34.164Z,15.30
2023-05-24T17:25:37.100Z,15.10
2023-05-24T17:30:39.650Z,15.00
2023-05-24T17:35:43.207Z,14.90
2023-05-24T17:40:46.779Z,14.70
2023-05-24T17:45:49.761Z,14.60
2023-05-24T17:50:52.567Z,14.50
2023-05-24T17:55:55.788Z,14.40
2023-05-24T18:00:58.838Z,14.30
2023-05-24T18:06:01.488Z,14.30
2023-05-24T18:11:08.572Z,14.20
2023-05-24T18:16:12.668Z,14.20
2023-05-24T18:21:16.795Z,14.10
2023-05-24T18:26:19.802Z,14.10
2023-05-24T18:31:22.573Z,14.00
2023-05-24T18:36:26.266Z,14.00
2023-05-24T18:41:29.095Z,13.90
2023-05-24T18:46:33.228Z,13.80
2023-05-24T18:51:37.596Z,13.70
2023-05-24T18:56:40.871Z,13.60
2023-05-24T19:01:46.037Z,13.40
2023-05-24T19:06:50.421Z,13.40
2023-05-24T19:11:53.574Z,13.40
2023-05-24T19:17:00.612Z,13.50
2023-05-24T19:22:04.578Z,13.40
2023-05-24T19:27:08.661Z,13.30
2023-05-24T19:32:12.639Z,13.30
2023-05-24T19:37:16.122Z,13.30
2023-05-24T19:42:18.835Z,13.20
2023-05-24T19:47:21.816Z,13.20
2023-05-24T19:52:26.084Z,13.20
2023-05-24T19:57:28.762Z,13.30
2023-05-24T20:02:34.095Z,13.30
2023-05-24T20:07:39.198Z,13.30
2023-05-24T20:12:42.801Z,13.30
2023-05-24T20:17:45.680Z,13.30
2023-05-24T20:22:48.678Z,13.20
2023-05-24T20:27:51.715Z,13.30
2023-05-24T20:32:54.536Z,13.30
2023-05-24T20:37:57.447Z,13.30
2023-05-24T20:43:00.280Z,13.20
2023-05-24T20:48:02.965Z,13.20
2023-05-24T20:53:06.019Z,13.20
2023-05-24T20:58:08.924Z,13.30
2023-05-24T21:03:14.589Z,13.20
2023-05-24T21:08:18.184Z,13.20
2023-05-24T21:13:22.090Z,13.10
2023-05-24T21:18:24.569Z,13.10
2023-05-24T21:23:27.134Z,13.20
2023-05-24T21:28:29.668Z,13.10
2023-05-24T21:33:32.738Z,13.10
2023-05-24T21:38:35.324Z,13.10
2023-05-24T21:43:40.758Z,13.00
2023-05-24T21:48:43.455Z,13.00
2023-05-24T21:53:46.128Z,13.00
2023-05-24T21:58:48.752Z,13.00
2023-05-24T22:03:51.415Z,13.00
2023-05-24T22:08:54.161Z,13.00
2023-05-24T22:13:57.096Z,12.90
2023-05-24T22:19:01.162Z,12.90
2023-05-24T22:24:03.958Z,13.00
2023-05-24T22:29:06.631Z,13.00
2023-05-24T22:34:11.611Z,13.00
2023-05-24T22:39:15.209Z,13.00
2023-05-24T22:44:17.767Z,13.00
2023-05-24T22:49:20.700Z,12.90
2023-05-24T22:54:23.416Z,12.90
2023-05-24T22:59:26.084Z,12.90
2023-05-24T23:04:28.956Z,13.00
2023-05-24T23:09:34.941Z,12.90
2023-05-24T23:14:39.623Z,12.90
2023-05-24T23:19:46.513Z,12.90
2023-05-24T23:24:49.093Z,13.40
2023-05-24T23:29:52.042Z,12.90
2023-05-24T23:34:55.021Z,12.80
2023-05-24T23:40:02.343Z,12.80
2023-05-24T23:45:05.410Z,12.80
2023-05-24T23:50:08.145Z,12.80
2023-05-24T23:55:10.981Z,12.80
